Mountain Home Air Force Base

Airport
ICAO code: 
KMUO
Summary
ICAO Region: 
NAM
Territory: 
Location: 
Mountain Home, Idaho,
Coordinates: 
Aerial View: 
43° 2' 25.017" N, 115° 52' 9.166" W
Airport CFIT: 
Altimeter Temperature Error Correction
Metar
Observation
KMUO 040613Z AUTO 13008KT 2 3/4SM BR CLR 01/01 A3011 RMK AO2 VIS 2 3/4V4 SLP212 RVRNO VISNO RWY30 $
Station
Mountain Home Air Force Base
Date/Time
2021-12-04 06:13:00
Wind direction
130°
Wind speed
08 kts
Lowest cloud amount
n/a
Temperature
1°C
Dew point
1°C
Humidity
100%
Weather condition
mist

Description

Mountain Home Air Force Base is a United States Air Force installation located in Elmore County, 19 km southwest of the city of Mountain Home.

Climatology

Cold Semi-arid climate (Köppen climate classification BSk). - Hot, sometimes extremely hot summers and cold, sometimes very cold winters. Some snowfall during the winter. Areas featuring cold semi-arid climates are sometimes subject to major temperature swings during a 24 hour period.

Runways

Designator Length Width Surface Rops
7/25 3048 152 ASP No/No
12/30 4115 61 PEM Yes/Yes
Airport map: 
Aerial View: 

SKYbrary Partners:

Safety knowledge contributed by: